createdAt,value
2018-06-04T00:00:40.784Z,5.83
2018-06-04T00:03:09.598Z,5.07
2018-06-04T00:05:38.482Z,6.97
2018-06-04T00:08:07.332Z,8.27
2018-06-04T00:10:36.142Z,4.47
2018-06-04T00:13:04.997Z,5.10
2018-06-04T00:15:33.597Z,6.20
2018-06-04T00:18:02.274Z,5.93
2018-06-04T00:20:31.338Z,7.80
2018-06-04T00:23:00.219Z,4.97
2018-06-04T00:25:29.041Z,7.03
2018-06-04T00:27:57.990Z,5.63
2018-06-04T00:30:26.821Z,5.40
2018-06-04T00:32:55.684Z,5.87
2018-06-04T00:35:24.485Z,4.37
2018-06-04T00:37:53.085Z,4.60
2018-06-04T00:40:21.771Z,5.77
2018-06-04T00:42:50.576Z,6.30
2018-06-04T00:45:19.467Z,4.97
2018-06-04T00:47:48.270Z,6.67
2018-06-04T00:50:17.122Z,9.63
2018-06-04T00:52:45.942Z,4.60
2018-06-04T00:55:14.782Z,7.00
2018-06-04T00:57:43.382Z,7.13
2018-06-04T01:00:12.078Z,6.00
2018-06-04T01:02:40.922Z,5.90
2018-06-04T01:05:09.727Z,4.87
2018-06-04T01:07:38.575Z,6.63
2018-06-04T01:10:07.421Z,5.27
2018-06-04T01:12:36.223Z,6.43
2018-06-04T01:15:05.042Z,6.17
2018-06-04T01:17:33.872Z,5.63
2018-06-04T01:20:02.702Z,6.67
2018-06-04T01:22:31.509Z,5.80
2018-06-04T01:25:00.314Z,7.80
2018-06-04T01:27:29.128Z,7.83
2018-06-04T01:29:57.965Z,5.73
2018-06-04T01:32:26.874Z,7.43
2018-06-04T01:34:55.854Z,5.40
2018-06-04T01:37:24.665Z,5.03
2018-06-04T01:39:53.506Z,7.27
2018-06-04T01:42:22.302Z,6.27
2018-06-04T01:44:51.135Z,7.50
2018-06-04T01:47:19.954Z,7.60
2018-06-04T01:49:48.885Z,8.60
2018-06-04T01:52:17.721Z,6.77
2018-06-04T01:54:46.525Z,5.80
2018-06-04T01:57:15.340Z,6.37
2018-06-04T01:59:44.148Z,5.80
2018-06-04T02:02:13.005Z,6.07
2018-06-04T02:04:41.864Z,5.57
2018-06-04T02:07:10.671Z,7.00
2018-06-04T02:09:39.618Z,6.23
2018-06-04T02:12:08.232Z,4.83
2018-06-04T02:14:36.912Z,7.73
2018-06-04T02:17:05.979Z,5.77
2018-06-04T02:19:34.891Z,7.80
2018-06-04T02:22:03.706Z,5.87
2018-06-04T02:24:32.514Z,6.97
2018-06-04T02:27:01.123Z,7.57
2018-06-04T02:29:29.806Z,6.20
2018-06-04T02:31:58.691Z,6.97
2018-06-04T02:34:27.530Z,6.77
2018-06-04T02:36:56.427Z,8.13
2018-06-04T02:39:25.257Z,6.77
2018-06-04T02:41:54.078Z,5.97
2018-06-04T02:44:22.896Z,8.03
2018-06-04T02:46:51.722Z,5.47
2018-06-04T02:49:20.714Z,6.43
2018-06-04T02:51:49.563Z,10.13
2018-06-04T02:54:18.408Z,6.77
2018-06-04T02:56:47.025Z,9.87
2018-06-04T02:59:15.513Z,7.90
2018-06-04T03:01:44.196Z,6.23
2018-06-04T03:04:13.014Z,8.87
2018-06-04T03:06:41.822Z,7.73
2018-06-04T03:09:10.699Z,6.80
2018-06-04T03:11:39.558Z,11.37
2018-06-04T03:14:09.220Z,10.00
2018-06-04T03:16:38.094Z,11.70
2018-06-04T03:19:07.057Z,10.73
2018-06-04T03:21:35.869Z,10.93
2018-06-04T03:24:04.809Z,10.03
2018-06-04T03:26:33.619Z,9.90
2018-06-04T03:29:02.442Z,8.30
2018-06-04T03:31:31.410Z,8.27
2018-06-04T03:34:00.263Z,7.93
2018-06-04T03:36:29.100Z,8.93
2018-06-04T03:38:57.942Z,9.80
2018-06-04T03:41:26.744Z,9.57
2018-06-04T03:43:55.542Z,8.00
2018-06-04T03:46:24.359Z,12.70
2018-06-04T03:48:53.219Z,9.40
2018-06-04T03:51:22.046Z,11.17
2018-06-04T03:53:50.865Z,10.53
2018-06-04T03:56:19.684Z,10.70
2018-06-04T03:58:48.494Z,9.80
2018-06-04T04:01:17.315Z,10.70
2018-06-04T04:03:46.182Z,9.23
2018-06-04T04:06:14.789Z,9.20
2018-06-04T04:08:43.541Z,9.50
2018-06-04T04:11:12.366Z,10.57
2018-06-04T04:13:41.195Z,11.23
2018-06-04T04:16:10.031Z,13.93
2018-06-04T04:18:38.842Z,10.27
2018-06-04T04:21:07.675Z,8.87
2018-06-04T04:23:36.595Z,13.20
2018-06-04T04:26:05.462Z,8.37
2018-06-04T04:28:34.278Z,11.03
2018-06-04T04:31:03.098Z,8.23
2018-06-04T04:33:31.903Z,9.80
2018-06-04T04:36:00.753Z,8.77
2018-06-04T04:38:29.578Z,10.07
2018-06-04T04:40:58.382Z,10.70
2018-06-04T04:43:27.198Z,11.70
2018-06-04T04:45:56.023Z,10.97
2018-06-04T04:48:24.851Z,8.73
2018-06-04T04:50:53.674Z,8.73
2018-06-04T04:53:22.490Z,13.10
2018-06-04T04:55:51.310Z,9.63
2018-06-04T04:58:20.206Z,9.73
2018-06-04T05:00:49.018Z,8.90
2018-06-04T05:03:17.987Z,12.93
2018-06-04T05:05:46.750Z,9.77
2018-06-04T05:08:15.569Z,11.73
2018-06-04T05:10:44.374Z,9.50
2018-06-04T05:13:13.194Z,10.80
2018-06-04T05:15:42.047Z,10.77
2018-06-04T05:18:10.906Z,12.50
2018-06-04T05:20:39.750Z,10.67
2018-06-04T05:23:08.900Z,11.27
2018-06-04T05:25:37.692Z,11.80
2018-06-04T05:28:06.301Z,9.43
2018-06-04T05:30:34.986Z,11.77
2018-06-04T05:33:03.798Z,8.77
2018-06-04T05:35:32.642Z,8.73
2018-06-04T05:38:01.470Z,12.60
2018-06-04T05:40:30.466Z,10.57
2018-06-04T05:42:59.323Z,18.20
2018-06-04T05:45:28.132Z,12.00
2018-06-04T05:47:57.006Z,14.30
2018-06-04T05:50:26.646Z,10.87
2018-06-04T05:52:55.475Z,10.70
2018-06-04T05:55:24.415Z,15.30
2018-06-04T05:57:53.230Z,25.80
2018-06-04T06:00:22.239Z,26.17
2018-06-04T06:02:51.086Z,25.73
2018-06-04T06:05:19.946Z,22.80
2018-06-04T06:07:48.789Z,27.37
2018-06-04T06:10:17.754Z,33.37
2018-06-04T06:12:46.594Z,38.80
2018-06-04T06:15:15.422Z,33.93
2018-06-04T06:17:44.242Z,30.03
2018-06-04T06:20:13.110Z,34.37
2018-06-04T06:22:41.955Z,32.87
2018-06-04T06:25:10.796Z,33.17
2018-06-04T06:27:39.625Z,33.17
2018-06-04T06:30:08.452Z,34.00
2018-06-04T06:32:37.292Z,38.10
2018-06-04T06:35:06.131Z,43.50
2018-06-04T06:37:35.019Z,46.63
2018-06-04T06:40:03.875Z,35.90
2018-06-04T06:42:32.684Z,36.07
2018-06-04T06:45:01.495Z,33.90
2018-06-04T06:47:30.327Z,41.43
2018-06-04T06:49:59.161Z,40.97
2018-06-04T06:52:28.014Z,45.53
2018-06-04T06:54:56.828Z,44.23
2018-06-04T06:57:25.646Z,42.27
2018-06-04T06:59:54.503Z,40.03
2018-06-04T07:02:23.402Z,34.97
2018-06-04T07:04:52.244Z,33.43
2018-06-04T07:07:21.173Z,35.03
2018-06-04T07:09:50.067Z,31.63
2018-06-04T07:12:18.879Z,32.43
2018-06-04T07:14:47.710Z,32.50
2018-06-04T07:17:16.854Z,32.00
2018-06-04T07:19:45.666Z,28.47
2018-06-04T07:22:14.538Z,34.73
2018-06-04T07:24:43.367Z,31.93
2018-06-04T07:27:12.318Z,30.60
2018-06-04T07:29:41.162Z,29.53
2018-06-04T07:32:09.986Z,27.87
2018-06-04T07:34:38.834Z,31.10
2018-06-04T07:37:07.643Z,30.10
2018-06-04T07:39:36.530Z,32.27
2018-06-04T07:42:05.350Z,30.53
2018-06-04T07:44:34.174Z,26.87
2018-06-04T07:47:02.786Z,31.70
2018-06-04T07:49:31.498Z,34.30
2018-06-04T07:52:00.561Z,32.33
2018-06-04T07:54:29.371Z,37.03
2018-06-04T07:56:58.328Z,37.90
2018-06-04T07:59:27.275Z,32.43
2018-06-04T08:01:56.135Z,45.87
2018-06-04T08:04:25.079Z,31.23
2018-06-04T08:06:53.928Z,39.43
2018-06-04T08:09:22.823Z,32.83
2018-06-04T08:11:51.690Z,33.50
2018-06-04T08:14:20.601Z,36.33
2018-06-04T08:16:49.470Z,39.40
2018-06-04T08:19:18.378Z,30.87
2018-06-04T08:21:47.202Z,31.37
2018-06-04T08:24:16.033Z,29.93
2018-06-04T08:26:44.847Z,41.27
2018-06-04T08:29:13.834Z,35.37
2018-06-04T08:31:42.623Z,34.37
2018-06-04T08:34:13.428Z,27.13
2018-06-04T08:36:42.303Z,28.23
2018-06-04T08:39:11.359Z,24.33
2018-06-04T08:41:40.407Z,29.93
2018-06-04T08:44:09.298Z,31.30
2018-06-04T08:46:39.210Z,22.20
2018-06-04T08:49:08.036Z,28.07
2018-06-04T08:51:36.883Z,27.80
2018-06-04T08:54:05.743Z,26.47
2018-06-04T08:56:34.575Z,29.87
2018-06-04T08:59:03.439Z,35.17
2018-06-04T09:01:32.287Z,24.27
2018-06-04T09:04:01.151Z,28.47
2018-06-04T09:06:30.206Z,26.87
2018-06-04T09:08:59.042Z,28.30
2018-06-04T09:11:27.886Z,24.10
2018-06-04T09:13:56.758Z,28.10
2018-06-04T09:16:25.653Z,22.97
2018-06-04T09:18:54.271Z,24.43
2018-06-04T09:21:22.961Z,26.90
2018-06-04T09:23:51.792Z,44.37
2018-06-04T09:26:20.634Z,30.77
2018-06-04T09:28:49.474Z,25.60
2018-06-04T09:31:18.311Z,24.93
2018-06-04T09:33:47.234Z,19.07
2018-06-04T09:36:16.097Z,21.83
2018-06-04T09:38:44.947Z,23.60
2018-06-04T09:41:13.795Z,22.30
2018-06-04T09:43:42.661Z,17.97
2018-06-04T09:46:11.547Z,20.33
2018-06-04T09:48:40.450Z,22.63
2018-06-04T09:51:09.443Z,18.73
2018-06-04T09:53:38.304Z,26.10
2018-06-04T09:56:07.181Z,19.53
2018-06-04T09:58:36.083Z,24.30
2018-06-04T10:01:04.961Z,22.27
2018-06-04T10:03:35.151Z,19.63
2018-06-04T10:06:04.052Z,18.10
2018-06-04T10:08:32.935Z,19.77
2018-06-04T10:11:01.864Z,21.87
2018-06-04T10:13:30.746Z,17.83
2018-06-04T10:15:59.631Z,23.03
2018-06-04T10:18:28.520Z,21.43
2018-06-04T10:20:57.424Z,22.57
2018-06-04T10:23:26.312Z,22.30
2018-06-04T10:25:55.226Z,23.67
2018-06-04T10:28:24.122Z,20.73
2018-06-04T10:30:53.002Z,17.93
2018-06-04T10:33:21.900Z,23.63
2018-06-04T10:35:51.853Z,20.60
2018-06-04T10:38:20.692Z,22.17
2018-06-04T10:40:49.607Z,21.70
2018-06-04T10:43:18.531Z,26.07
2018-06-04T10:45:47.415Z,19.47
2018-06-04T10:48:16.310Z,19.10
2018-06-04T10:50:45.532Z,21.47
2018-06-04T10:53:14.371Z,31.67
2018-06-04T10:55:43.279Z,21.40
2018-06-04T10:58:12.191Z,13.57
2018-06-04T11:00:41.099Z,20.50
2018-06-04T11:03:10.066Z,15.93
2018-06-04T11:05:38.971Z,19.17
2018-06-04T11:08:07.879Z,23.53
2018-06-04T11:10:36.852Z,15.47
2018-06-04T11:13:05.711Z,21.63
2018-06-04T11:15:34.566Z,17.57
2018-06-04T11:18:03.443Z,14.97
2018-06-04T11:20:32.322Z,17.87
2018-06-04T11:23:01.193Z,20.20
2018-06-04T11:25:30.047Z,32.43
2018-06-04T11:27:58.918Z,25.67
2018-06-04T11:30:27.804Z,23.30
2018-06-04T11:32:56.582Z,24.67
2018-06-04T11:35:25.412Z,21.47
2018-06-04T11:37:54.250Z,17.17
2018-06-04T11:40:23.118Z,22.53
2018-06-04T11:42:52.010Z,18.37
2018-06-04T11:45:20.903Z,16.30
2018-06-04T11:47:49.734Z,17.80
2018-06-04T11:50:18.558Z,21.97
2018-06-04T11:52:47.410Z,15.20
2018-06-04T11:55:16.226Z,17.70
2018-06-04T11:57:44.833Z,17.13
2018-06-04T12:00:13.543Z,17.87
2018-06-04T12:02:42.588Z,18.80
2018-06-04T12:05:11.421Z,15.17
2018-06-04T12:07:40.054Z,18.20
2018-06-04T12:10:08.878Z,16.37
2018-06-04T12:12:37.755Z,15.07
2018-06-04T12:15:06.594Z,17.60
2018-06-04T12:17:35.436Z,16.80
2018-06-04T12:20:04.319Z,14.40
2018-06-04T12:22:33.150Z,20.83
2018-06-04T12:25:02.003Z,12.40
2018-06-04T12:27:30.814Z,17.13
2018-06-04T12:29:59.647Z,13.33
2018-06-04T12:32:28.305Z,13.07
2018-06-04T12:34:57.012Z,14.50
2018-06-04T12:37:25.902Z,14.80
2018-06-04T12:39:54.742Z,10.57
2018-06-04T12:42:23.682Z,10.40
2018-06-04T12:44:52.514Z,8.43
2018-06-04T12:47:21.319Z,11.10
2018-06-04T12:49:50.161Z,14.03
2018-06-04T12:52:18.990Z,10.20
2018-06-04T12:54:47.863Z,11.33
2018-06-04T12:57:16.707Z,8.60
2018-06-04T12:59:45.555Z,10.50
2018-06-04T13:02:14.359Z,6.57
2018-06-04T13:04:43.266Z,9.63
2018-06-04T13:07:12.067Z,9.17
2018-06-04T13:09:40.922Z,7.93
2018-06-04T13:12:09.753Z,10.47
2018-06-04T13:14:38.349Z,7.03
2018-06-04T13:17:07.094Z,8.23
2018-06-04T13:19:35.954Z,9.43
2018-06-04T13:22:04.792Z,9.20
2018-06-04T13:24:33.625Z,7.83
2018-06-04T13:27:02.491Z,7.90
2018-06-04T13:29:31.310Z,5.47
2018-06-04T13:32:00.174Z,10.33
2018-06-04T13:34:28.998Z,7.57
2018-06-04T13:36:57.862Z,7.77
2018-06-04T13:39:26.814Z,9.03
2018-06-04T13:41:55.614Z,7.53
2018-06-04T13:44:24.474Z,6.33
2018-06-04T13:46:53.279Z,9.93
2018-06-04T13:49:22.098Z,7.37
2018-06-04T13:51:50.954Z,9.00
2018-06-04T13:54:19.814Z,11.80
2018-06-04T13:56:48.713Z,10.63
2018-06-04T13:59:17.536Z,7.97
2018-06-04T14:01:46.153Z,5.70
2018-06-04T14:04:14.858Z,7.03
2018-06-04T14:06:43.676Z,7.57
2018-06-04T14:09:12.782Z,5.83
2018-06-04T14:11:41.703Z,7.07
2018-06-04T14:14:10.563Z,7.23
2018-06-04T14:16:39.401Z,6.83
2018-06-04T14:19:08.089Z,8.20
2018-06-04T14:21:36.915Z,8.93
2018-06-04T14:24:05.730Z,6.93
2018-06-04T14:26:34.586Z,6.30
2018-06-04T14:29:06.086Z,7.80
2018-06-04T14:31:36.067Z,6.83
2018-06-04T14:34:05.859Z,5.90
2018-06-04T14:36:34.688Z,6.60
2018-06-04T14:39:06.063Z,6.40
2018-06-04T14:41:34.618Z,7.50
2018-06-04T14:44:03.310Z,6.20
2018-06-04T14:46:32.133Z,8.70
2018-06-04T14:49:00.951Z,8.47
2018-06-04T14:51:29.765Z,8.80
2018-06-04T14:53:58.620Z,7.97
2018-06-04T14:56:27.526Z,6.53
2018-06-04T14:58:56.342Z,6.90
2018-06-04T15:01:25.199Z,6.47
2018-06-04T15:03:54.065Z,8.77
2018-06-04T15:06:22.901Z,6.93
2018-06-04T15:08:51.711Z,6.83
2018-06-04T15:11:20.538Z,11.07
2018-06-04T15:13:49.378Z,9.47
2018-06-04T15:16:18.234Z,11.07
2018-06-04T15:18:47.074Z,13.60
2018-06-04T15:21:15.922Z,10.63
2018-06-04T15:23:44.818Z,11.50
2018-06-04T15:26:13.671Z,11.37
2018-06-04T15:28:42.518Z,11.60
2018-06-04T15:31:11.462Z,11.57
2018-06-04T15:33:40.080Z,9.53
2018-06-04T15:36:08.794Z,13.40
2018-06-04T15:38:37.691Z,13.03
2018-06-04T15:41:06.588Z,11.23
2018-06-04T15:43:35.668Z,9.37
2018-06-04T15:46:04.547Z,7.90
2018-06-04T15:48:33.414Z,8.63
2018-06-04T15:51:02.294Z,9.00
2018-06-04T15:53:31.138Z,10.00
2018-06-04T15:56:00.005Z,7.27
2018-06-04T15:58:28.826Z,8.77
2018-06-04T16:00:57.738Z,7.97
2018-06-04T16:03:26.666Z,8.57
2018-06-04T16:05:55.686Z,10.23
2018-06-04T16:08:24.559Z,8.93
2018-06-04T16:10:53.845Z,10.57
2018-06-04T16:13:22.710Z,9.63
2018-06-04T16:15:51.602Z,9.70
2018-06-04T16:18:20.481Z,8.90
2018-06-04T16:20:49.110Z,9.63
2018-06-04T16:23:17.911Z,9.17
2018-06-04T16:25:46.864Z,12.00
2018-06-04T16:28:15.785Z,10.30
2018-06-04T16:30:44.719Z,9.53
2018-06-04T16:33:13.598Z,10.70
2018-06-04T16:35:42.418Z,10.63
2018-06-04T16:38:11.266Z,11.70
2018-06-04T16:40:40.304Z,12.37
2018-06-04T16:43:09.185Z,9.93
2018-06-04T16:45:38.094Z,11.07
2018-06-04T16:48:06.926Z,8.67
2018-06-04T16:50:35.882Z,8.47
2018-06-04T16:53:04.706Z,10.53
2018-06-04T16:55:33.546Z,10.37
2018-06-04T16:58:02.382Z,8.80
2018-06-04T17:00:31.174Z,9.77
2018-06-04T17:03:00.062Z,10.20
2018-06-04T17:05:28.912Z,8.30
2018-06-04T17:07:57.781Z,9.60
2018-06-04T17:10:26.665Z,8.27
2018-06-04T17:12:55.486Z,7.73
2018-06-04T17:15:24.306Z,7.63
2018-06-04T17:17:53.102Z,9.93
2018-06-04T17:20:21.934Z,9.53
2018-06-04T17:22:50.754Z,10.60
2018-06-04T17:25:19.590Z,10.47
2018-06-04T17:27:48.539Z,11.70
2018-06-04T17:30:18.002Z,5.10
2018-06-04T17:32:46.958Z,7.17
2018-06-04T17:35:16.091Z,4.77
2018-06-04T17:37:44.863Z,6.07
2018-06-04T17:40:13.775Z,5.23
2018-06-04T17:42:42.749Z,14.33
2018-06-04T17:45:11.941Z,64.40
2018-06-04T17:47:40.822Z,59.73
2018-06-04T17:50:09.761Z,47.93
2018-06-04T17:52:38.737Z,40.50
2018-06-04T17:55:07.626Z,36.23
2018-06-04T17:57:36.587Z,28.33
2018-06-04T18:00:05.583Z,21.70
2018-06-04T18:02:34.466Z,17.07
2018-06-04T18:05:03.363Z,13.07
2018-06-04T18:07:32.268Z,10.30
2018-06-04T18:10:01.157Z,9.57
2018-06-04T18:12:30.088Z,8.97
2018-06-04T18:14:58.946Z,6.90
2018-06-04T18:17:27.785Z,5.87
2018-06-04T18:19:56.661Z,5.87
2018-06-04T18:22:25.497Z,4.70
2018-06-04T18:24:54.355Z,4.37
2018-06-04T18:27:23.238Z,4.87
2018-06-04T18:29:52.206Z,5.50
2018-06-04T18:32:21.078Z,3.80
2018-06-04T18:34:49.958Z,7.33
2018-06-04T18:37:18.849Z,4.30
2018-06-04T18:39:47.849Z,6.83
2018-06-04T18:42:16.727Z,4.43
2018-06-04T18:44:45.689Z,4.37
2018-06-04T18:47:14.579Z,4.90
2018-06-04T18:49:43.454Z,4.50
2018-06-04T18:52:12.375Z,6.87
2018-06-04T18:54:41.320Z,3.63
2018-06-04T18:57:10.266Z,4.43
2018-06-04T18:59:39.193Z,4.53
2018-06-04T19:02:08.014Z,4.43
2018-06-04T19:04:37.010Z,4.80
2018-06-04T19:07:06.075Z,3.80
2018-06-04T19:09:35.074Z,4.90
2018-06-04T19:12:03.950Z,3.50
2018-06-04T19:14:32.830Z,3.97
2018-06-04T19:17:01.710Z,6.17
2018-06-04T19:19:30.566Z,3.97
2018-06-04T19:21:59.462Z,3.10
2018-06-04T19:24:28.346Z,5.00
2018-06-04T19:26:57.243Z,3.03
2018-06-04T19:29:26.126Z,5.00
2018-06-04T19:31:55.043Z,5.30
2018-06-04T19:34:23.878Z,6.47
2018-06-04T19:36:52.520Z,5.80
2018-06-04T19:39:21.431Z,5.00
2018-06-04T19:41:50.174Z,5.03
2018-06-04T19:44:19.080Z,5.37
2018-06-04T19:46:48.028Z,3.70
2018-06-04T19:49:16.915Z,4.83
2018-06-04T19:51:45.915Z,6.83
2018-06-04T19:54:14.828Z,6.83
2018-06-04T19:56:43.740Z,6.13
2018-06-04T19:59:12.706Z,4.77
2018-06-04T20:01:41.634Z,6.10
2018-06-04T20:04:10.518Z,6.90
2018-06-04T20:06:39.430Z,5.26
2018-06-04T20:09:09.103Z,5.37
2018-06-04T20:11:37.946Z,7.50
2018-06-04T20:14:06.618Z,9.47
2018-06-04T20:16:35.350Z,6.60
2018-06-04T20:19:04.233Z,6.03
2018-06-04T20:21:33.130Z,5.60
2018-06-04T20:24:02.051Z,6.23
2018-06-04T20:26:30.979Z,4.20
2018-06-04T20:28:59.855Z,4.93
2018-06-04T20:31:28.493Z,5.13
2018-06-04T20:33:57.334Z,3.97
2018-06-04T20:36:26.275Z,5.00
2018-06-04T20:38:55.118Z,5.13
2018-06-04T20:41:24.059Z,5.90
2018-06-04T20:43:52.984Z,5.30
2018-06-04T20:46:21.839Z,6.20
2018-06-04T20:48:51.895Z,7.40
2018-06-04T20:51:20.685Z,7.77
2018-06-04T20:53:49.463Z,6.87
2018-06-04T20:56:18.430Z,7.20
2018-06-04T20:58:47.362Z,7.33
2018-06-04T21:01:16.222Z,4.33
2018-06-04T21:03:45.233Z,5.00
2018-06-04T21:06:14.258Z,5.10
2018-06-04T21:08:43.154Z,6.40
2018-06-04T21:11:12.038Z,7.50
2018-06-04T21:13:40.912Z,5.87
2018-06-04T21:16:10.119Z,5.57
2018-06-04T21:18:39.042Z,5.90
2018-06-04T21:21:07.910Z,7.03
2018-06-04T21:23:36.762Z,11.30
2018-06-04T21:26:05.614Z,5.60
2018-06-04T21:28:34.505Z,7.80
2018-06-04T21:31:03.356Z,5.83
2018-06-04T21:33:32.195Z,5.70
2018-06-04T21:36:01.149Z,5.90
2018-06-04T21:38:30.189Z,5.57
2018-06-04T21:40:59.072Z,6.13
2018-06-04T21:43:37.166Z,9.13
2018-06-04T21:46:06.179Z,6.00
2018-06-04T21:48:35.074Z,6.33
2018-06-04T21:51:04.094Z,6.10
2018-06-04T21:53:33.272Z,5.30
2018-06-04T21:56:04.519Z,7.93
2018-06-04T21:58:34.373Z,7.80
2018-06-04T22:01:03.314Z,5.67
2018-06-04T22:03:32.429Z,5.37
2018-06-04T22:06:02.025Z,6.37
2018-06-04T22:08:30.899Z,6.80
2018-06-04T22:11:00.450Z,8.53
2018-06-04T22:13:30.135Z,5.23
2018-06-04T22:16:01.906Z,4.60
2018-06-04T22:18:32.902Z,5.47
2018-06-04T22:21:03.186Z,5.93
2018-06-04T22:23:35.213Z,11.40
2018-06-04T22:26:08.186Z,7.40
2018-06-04T22:28:37.128Z,7.73
2018-06-04T22:31:05.982Z,8.33
2018-06-04T22:33:34.842Z,6.63
2018-06-04T22:36:03.706Z,8.67
2018-06-04T22:38:32.674Z,9.90
2018-06-04T22:41:01.696Z,6.40
2018-06-04T22:43:30.736Z,5.50
2018-06-04T22:45:59.502Z,9.10
2018-06-04T22:48:28.370Z,8.30
2018-06-04T22:50:57.282Z,7.57
2018-06-04T22:53:26.200Z,7.23
2018-06-04T22:55:55.132Z,7.73
2018-06-04T22:58:24.049Z,9.90
2018-06-04T23:00:53.070Z,10.73
2018-06-04T23:03:22.006Z,11.60
2018-06-04T23:05:51.066Z,11.97
2018-06-04T23:08:20.123Z,10.07
2018-06-04T23:10:49.058Z,10.63
2018-06-04T23:13:18.231Z,8.17
2018-06-04T23:15:47.419Z,11.20
2018-06-04T23:18:16.590Z,9.53
2018-06-04T23:20:46.114Z,10.47
2018-06-04T23:23:15.094Z,11.47
2018-06-04T23:25:44.668Z,9.23
2018-06-04T23:28:13.740Z,9.77
2018-06-04T23:30:42.967Z,11.57
2018-06-04T23:33:11.866Z,10.67
2018-06-04T23:35:40.744Z,10.80
2018-06-04T23:38:09.709Z,10.50
2018-06-04T23:40:38.842Z,10.40
2018-06-04T23:43:07.770Z,11.53
2018-06-04T23:45:37.100Z,10.47
2018-06-04T23:48:06.199Z,12.50
2018-06-04T23:50:35.393Z,8.77
2018-06-04T23:53:04.351Z,11.43
2018-06-04T23:55:34.045Z,12.67
2018-06-04T23:58:03.195Z,10.88
